createdAt,value
2022-12-06T00:01:34.934Z,4.53
2022-12-06T00:04:40.330Z,4.52
2022-12-06T00:07:46.185Z,4.57
2022-12-06T00:10:53.849Z,4.56
2022-12-06T00:14:03.438Z,4.57
2022-12-06T00:17:08.449Z,4.56
2022-12-06T00:20:15.098Z,4.57
2022-12-06T00:23:20.033Z,4.58
2022-12-06T00:26:29.703Z,4.58
2022-12-06T00:29:34.853Z,4.59
2022-12-06T00:32:40.908Z,4.61
2022-12-06T00:35:46.607Z,4.60
2022-12-06T00:38:53.830Z,4.57
2022-12-06T00:42:03.688Z,4.58
2022-12-06T00:45:12.004Z,4.56
2022-12-06T00:48:17.153Z,4.55
2022-12-06T00:51:26.143Z,4.57
2022-12-06T00:54:31.044Z,4.58
2022-12-06T00:57:39.532Z,4.59
2022-12-06T01:00:45.335Z,4.59
2022-12-06T01:03:55.564Z,4.55
2022-12-06T01:07:00.461Z,4.64
2022-12-06T01:10:09.812Z,4.65
2022-12-06T01:13:17.346Z,4.65
2022-12-06T01:16:28.800Z,4.66
2022-12-06T01:19:33.796Z,4.68
2022-12-06T01:22:39.714Z,4.69
2022-12-06T01:25:53.140Z,4.69
2022-12-06T01:29:03.690Z,4.68
2022-12-06T01:32:09.178Z,4.64
2022-12-06T01:35:15.011Z,4.57
2022-12-06T01:38:20.049Z,4.56
2022-12-06T01:41:29.189Z,4.51
2022-12-06T01:44:48.158Z,4.46
2022-12-06T01:47:54.382Z,4.42
2022-12-06T01:51:03.347Z,4.37
2022-12-06T01:54:16.064Z,4.32
2022-12-06T01:57:21.753Z,4.28
2022-12-06T02:00:30.765Z,4.27
2022-12-06T02:03:37.703Z,4.24
2022-12-06T02:06:44.865Z,4.19
2022-12-06T02:09:55.018Z,4.11
2022-12-06T02:13:03.364Z,4.06
2022-12-06T02:16:44.161Z,4.06
2022-12-06T02:20:22.005Z,4.11
2022-12-06T02:24:30.250Z,4.13
2022-12-06T02:28:12.393Z,4.10
2022-12-06T02:31:36.498Z,4.07
2022-12-06T02:34:54.383Z,4.03
2022-12-06T02:38:13.311Z,3.90
2022-12-06T02:41:29.248Z,4.10
2022-12-06T02:44:45.130Z,4.14
2022-12-06T02:48:00.987Z,4.12
2022-12-06T02:51:17.408Z,4.10
2022-12-06T02:54:27.490Z,3.91
2022-12-06T02:57:45.946Z,4.14
2022-12-06T03:00:58.878Z,4.13
2022-12-06T03:04:36.048Z,4.16
2022-12-06T03:07:48.715Z,4.11
2022-12-06T03:11:06.264Z,4.04
2022-12-06T03:14:22.507Z,3.98
2022-12-06T03:17:41.987Z,3.91
2022-12-06T03:20:57.960Z,3.87
2022-12-06T03:24:08.348Z,3.86
2022-12-06T03:27:20.976Z,3.82
2022-12-06T03:30:27.918Z,3.79
2022-12-06T03:33:37.845Z,3.83
2022-12-06T03:36:52.745Z,3.91
2022-12-06T03:40:10.185Z,3.94
2022-12-06T03:43:17.221Z,3.96
2022-12-06T03:46:30.901Z,4.01
2022-12-06T03:49:46.493Z,4.02
2022-12-06T03:52:56.026Z,4.09
2022-12-06T03:56:03.517Z,4.07
2022-12-06T03:59:11.163Z,4.12
2022-12-06T04:02:17.740Z,4.18
2022-12-06T04:05:23.693Z,4.20
2022-12-06T04:08:32.717Z,4.20
2022-12-06T04:11:38.719Z,4.22
2022-12-06T04:14:44.859Z,4.26
2022-12-06T04:18:06.767Z,4.29
2022-12-06T04:21:28.664Z,4.33
2022-12-06T04:24:37.063Z,4.36
2022-12-06T04:27:58.824Z,4.37
2022-12-06T04:31:22.775Z,4.37
2022-12-06T04:34:44.799Z,4.35
2022-12-06T04:38:05.915Z,4.36
2022-12-06T04:41:37.261Z,4.31
2022-12-06T04:44:40.308Z,4.29
2022-12-06T04:47:46.479Z,4.27
2022-12-06T04:50:52.905Z,4.22
2022-12-06T04:53:59.161Z,4.17
2022-12-06T04:57:11.200Z,4.19
2022-12-06T05:00:19.034Z,4.19
2022-12-06T05:03:25.042Z,4.14
2022-12-06T05:06:31.415Z,4.12
2022-12-06T05:09:36.789Z,4.13
2022-12-06T05:12:45.744Z,4.09
2022-12-06T05:15:56.201Z,4.08
2022-12-06T05:19:03.623Z,4.10
2022-12-06T05:22:08.959Z,4.11
2022-12-06T05:25:17.016Z,4.12
2022-12-06T05:28:25.553Z,4.16
2022-12-06T05:31:31.975Z,4.21
2022-12-06T05:34:37.305Z,4.25
2022-12-06T05:37:43.804Z,4.29
2022-12-06T05:40:50.036Z,4.34
2022-12-06T05:43:59.191Z,4.35
2022-12-06T05:47:06.339Z,4.38
2022-12-06T05:50:14.785Z,4.36
2022-12-06T05:53:21.303Z,4.36
2022-12-06T05:56:27.494Z,4.39
2022-12-06T05:59:36.901Z,4.43
2022-12-06T06:02:43.877Z,4.46
2022-12-06T06:05:52.599Z,4.48
2022-12-06T06:08:59.001Z,4.52
2022-12-06T06:12:12.121Z,4.53
2022-12-06T06:15:21.937Z,4.54
2022-12-06T06:18:27.871Z,4.46
2022-12-06T06:21:34.054Z,4.53
2022-12-06T06:24:41.099Z,4.57
2022-12-06T06:27:47.559Z,4.61
2022-12-06T06:30:55.730Z,4.64
2022-12-06T06:34:03.377Z,4.64
2022-12-06T06:37:10.652Z,4.64
2022-12-06T06:40:17.255Z,4.64
2022-12-06T06:43:22.607Z,4.64
2022-12-06T06:46:31.625Z,4.67
2022-12-06T06:49:37.107Z,4.70
2022-12-06T06:52:43.292Z,4.71
2022-12-06T06:55:50.518Z,4.73
2022-12-06T06:58:56.727Z,4.76
2022-12-06T07:02:06.345Z,4.73
2022-12-06T07:05:13.015Z,4.75
2022-12-06T07:08:18.681Z,4.78
2022-12-06T07:11:25.160Z,4.81
2022-12-06T07:14:30.488Z,4.82
2022-12-06T07:17:39.487Z,4.85
2022-12-06T07:20:44.837Z,4.79
2022-12-06T07:23:51.323Z,4.81
2022-12-06T07:26:57.563Z,4.82
2022-12-06T07:30:03.969Z,4.82
2022-12-06T07:33:12.185Z,4.82
2022-12-06T07:36:20.312Z,4.80
2022-12-06T07:39:26.832Z,4.83
2022-12-06T07:42:48.835Z,4.85
2022-12-06T07:45:54.506Z,4.79
2022-12-06T07:49:04.470Z,4.79
2022-12-06T07:52:11.653Z,4.81
2022-12-06T07:55:21.504Z,4.81
2022-12-06T07:58:26.877Z,4.81
2022-12-06T08:01:33.286Z,4.84
2022-12-06T08:04:41.930Z,4.87
2022-12-06T08:07:48.261Z,4.92
2022-12-06T08:10:54.163Z,4.87
2022-12-06T08:14:00.430Z,4.84
2022-12-06T08:17:09.548Z,4.85
2022-12-06T08:20:20.143Z,4.84
2022-12-06T08:23:30.686Z,4.81
2022-12-06T08:26:40.195Z,4.85
2022-12-06T08:29:49.334Z,4.82
2022-12-06T08:33:07.421Z,4.81
2022-12-06T08:36:19.862Z,4.59
2022-12-06T08:39:29.064Z,4.81
2022-12-06T08:42:34.399Z,4.85
2022-12-06T08:45:40.856Z,4.90
2022-12-06T08:48:46.761Z,4.92
2022-12-06T08:51:56.619Z,4.92
2022-12-06T08:55:04.392Z,4.95
2022-12-06T08:58:11.229Z,4.99
2022-12-06T09:01:20.290Z,5.01
2022-12-06T09:04:28.159Z,5.00
2022-12-06T09:07:36.678Z,4.99
2022-12-06T09:10:42.975Z,5.00
2022-12-06T09:13:48.784Z,5.01
2022-12-06T09:16:55.564Z,5.01
2022-12-06T09:20:05.580Z,5.00
2022-12-06T09:23:15.353Z,4.99
2022-12-06T09:26:20.988Z,5.00
2022-12-06T09:29:27.645Z,5.01
2022-12-06T09:32:34.912Z,4.98
2022-12-06T09:35:41.482Z,4.96
2022-12-06T09:38:58.435Z,4.97
2022-12-06T09:42:49.460Z,5.00
2022-12-06T09:46:22.526Z,5.04
2022-12-06T09:49:39.242Z,5.04
2022-12-06T09:53:18.786Z,5.05
2022-12-06T09:56:39.459Z,5.05
2022-12-06T10:00:06.344Z,5.04
2022-12-06T10:04:17.361Z,4.82
2022-12-06T10:07:37.578Z,4.51
2022-12-06T10:11:08.160Z,4.16
2022-12-06T10:14:49.168Z,3.97
2022-12-06T10:18:29.788Z,3.87
2022-12-06T10:21:54.632Z,3.81
2022-12-06T10:25:11.088Z,3.79
2022-12-06T10:28:25.451Z,3.72
2022-12-06T10:31:58.483Z,3.60
2022-12-06T10:35:23.466Z,3.49
2022-12-06T10:38:43.232Z,3.39
2022-12-06T10:42:03.644Z,3.17
2022-12-06T10:45:42.364Z,3.06
2022-12-06T10:49:07.247Z,2.91
2022-12-06T10:52:30.105Z,2.63
2022-12-06T10:55:50.801Z,2.50
2022-12-06T10:59:08.529Z,2.30
2022-12-06T11:02:38.168Z,2.29
2022-12-06T11:05:57.690Z,2.33
2022-12-06T11:09:17.110Z,2.29
2022-12-06T11:12:32.124Z,2.40
2022-12-06T11:15:44.203Z,2.46
2022-12-06T11:18:52.363Z,2.46
2022-12-06T11:22:15.509Z,2.42
2022-12-06T11:25:33.496Z,2.34
2022-12-06T11:28:44.213Z,2.33
2022-12-06T11:31:56.900Z,2.29
2022-12-06T11:35:07.140Z,2.31
2022-12-06T11:38:20.532Z,2.37
2022-12-06T11:41:31.815Z,2.43
2022-12-06T11:44:49.942Z,2.43
2022-12-06T11:47:58.044Z,2.48
2022-12-06T11:51:06.595Z,2.46
2022-12-06T11:54:29.463Z,2.44
2022-12-06T11:57:47.598Z,2.49
2022-12-06T12:01:10.032Z,2.49
2022-12-06T12:04:36.595Z,2.42
2022-12-06T12:07:45.796Z,2.38
2022-12-06T12:11:04.652Z,2.23
2022-12-06T12:14:21.474Z,2.21
2022-12-06T12:17:35.132Z,2.32
2022-12-06T12:20:49.494Z,2.41
2022-12-06T12:23:55.894Z,2.39
2022-12-06T12:27:04.190Z,2.34
2022-12-06T12:30:31.663Z,2.43
2022-12-06T12:33:37.205Z,2.52
2022-12-06T12:36:52.915Z,2.62
2022-12-06T12:39:58.483Z,2.73
2022-12-06T12:43:18.667Z,2.80
2022-12-06T12:46:25.834Z,2.81
2022-12-06T12:49:38.704Z,2.75
2022-12-06T12:52:46.032Z,2.49
2022-12-06T12:56:11.056Z,2.65
2022-12-06T12:59:24.239Z,2.61
2022-12-06T13:02:34.972Z,2.52
2022-12-06T13:05:46.887Z,2.40
2022-12-06T13:08:54.981Z,2.31
2022-12-06T13:12:07.617Z,2.28
2022-12-06T13:15:29.086Z,2.20
2022-12-06T13:18:44.294Z,2.13
2022-12-06T13:21:54.584Z,2.14
2022-12-06T13:25:09.255Z,2.09
2022-12-06T13:28:25.661Z,2.00
2022-12-06T13:31:41.232Z,1.81
2022-12-06T13:34:56.635Z,1.72
2022-12-06T13:38:07.392Z,1.75
2022-12-06T13:41:37.879Z,1.65
2022-12-06T13:44:45.763Z,1.68
2022-12-06T13:47:56.144Z,1.78
2022-12-06T13:51:06.704Z,1.75
2022-12-06T13:54:42.836Z,1.69
2022-12-06T13:57:48.476Z,1.67
2022-12-06T14:00:57.689Z,1.73
2022-12-06T14:04:08.919Z,1.69
2022-12-06T14:10:20.707Z,1.82
2022-12-06T14:13:27.478Z,1.79
2022-12-06T14:16:41.546Z,1.71
2022-12-06T14:19:53.322Z,1.67
2022-12-06T14:22:59.526Z,1.60
2022-12-06T14:26:27.977Z,1.61
2022-12-06T14:29:33.523Z,1.59
2022-12-06T14:32:44.212Z,1.51
2022-12-06T14:35:58.525Z,1.55
2022-12-06T14:39:19.046Z,1.56
2022-12-06T14:42:40.695Z,1.55
2022-12-06T14:45:52.870Z,1.63
2022-12-06T14:49:13.897Z,1.63
2022-12-06T14:52:28.239Z,1.55
2022-12-06T14:55:37.341Z,1.53
2022-12-06T14:58:46.535Z,1.40
2022-12-06T15:01:56.726Z,1.17
2022-12-06T15:05:03.617Z,1.37
2022-12-06T15:08:38.981Z,1.26
2022-12-06T15:12:03.593Z,0.92
2022-12-06T15:15:24.576Z,1.06
2022-12-06T15:18:36.885Z,1.08
2022-12-06T15:21:42.598Z,1.02
2022-12-06T15:24:54.845Z,0.93
2022-12-06T15:28:00.322Z,0.97
2022-12-06T15:31:16.539Z,0.53
2022-12-06T15:34:30.104Z,0.74
2022-12-06T15:37:39.065Z,0.80
2022-12-06T15:40:51.184Z,0.81
2022-12-06T15:43:59.264Z,0.73
2022-12-06T15:47:06.631Z,0.43
2022-12-06T15:50:19.676Z,0.53
2022-12-06T15:53:28.470Z,0.39
2022-12-06T15:56:37.443Z,0.44
2022-12-06T15:59:43.003Z,0.39
2022-12-06T16:02:49.728Z,0.40
2022-12-06T16:05:55.280Z,0.42
2022-12-06T16:09:03.363Z,0.32
2022-12-06T16:12:13.976Z,0.08
2022-12-06T16:15:20.444Z,0.18
2022-12-06T16:18:25.991Z,0.32
2022-12-06T16:21:35.294Z,0.21
2022-12-06T16:24:41.015Z,0.22
2022-12-06T16:27:49.955Z,0.10
2022-12-06T16:30:55.652Z,0.13
2022-12-06T16:34:03.768Z,0.07
2022-12-06T16:37:09.929Z,0.16
2022-12-06T16:40:24.563Z,0.19
2022-12-06T16:43:36.827Z,0.23
2022-12-06T16:46:45.783Z,0.20
2022-12-06T16:49:51.311Z,0.16
2022-12-06T16:52:58.141Z,0.12
2022-12-06T16:56:03.531Z,0.04
2022-12-06T16:59:18.587Z,-0.10
2022-12-06T17:02:31.997Z,-0.08
2022-12-06T17:05:38.238Z,-0.11
2022-12-06T17:08:43.676Z,-0.32
2022-12-06T17:12:12.822Z,-0.22
2022-12-06T17:15:24.147Z,-0.17
2022-12-06T17:18:30.345Z,-0.27
2022-12-06T17:21:36.701Z,-0.32
2022-12-06T17:24:44.056Z,-0.15
2022-12-06T17:27:49.755Z,-0.23
2022-12-06T17:30:58.883Z,-0.22
2022-12-06T17:34:10.420Z,-0.18
2022-12-06T17:37:17.024Z,-0.12
2022-12-06T17:40:22.519Z,-0.29
2022-12-06T17:43:26.096Z,-0.25
2022-12-06T17:46:34.703Z,-0.18
2022-12-06T17:49:41.377Z,-0.30
2022-12-06T17:52:47.133Z,-0.39
2022-12-06T17:55:53.319Z,-0.49
2022-12-06T17:59:03.618Z,-0.39
2022-12-06T18:02:18.727Z,-0.24
2022-12-06T18:05:24.516Z,-0.13
2022-12-06T18:08:30.768Z,-0.03
2022-12-06T18:11:38.837Z,-0.04
2022-12-06T18:14:45.416Z,-0.20
2022-12-06T18:17:55.347Z,-0.28
2022-12-06T18:21:03.403Z,-0.44
2022-12-06T18:24:21.561Z,-0.50
2022-12-06T18:27:29.176Z,-0.51
2022-12-06T18:30:34.635Z,-0.65
2022-12-06T18:33:43.610Z,-0.84
2022-12-06T18:36:49.695Z,-0.93
2022-12-06T18:39:55.936Z,-1.05
2022-12-06T18:43:03.447Z,-1.10
2022-12-06T18:46:15.282Z,-1.18
2022-12-06T18:49:23.793Z,-1.08
2022-12-06T18:52:30.850Z,-1.10
2022-12-06T18:55:36.516Z,-1.15
2022-12-06T18:58:44.864Z,-1.27
2022-12-06T19:01:50.580Z,-1.45
2022-12-06T19:05:00.134Z,-1.42
2022-12-06T19:08:08.392Z,-1.38
2022-12-06T19:11:20.659Z,-1.42
2022-12-06T19:14:26.585Z,-1.32
2022-12-06T19:17:32.817Z,-1.25
2022-12-06T19:20:41.911Z,-1.40
2022-12-06T19:23:51.714Z,-1.37
2022-12-06T19:26:59.348Z,-1.44
2022-12-06T19:30:09.123Z,-1.41
2022-12-06T19:33:14.611Z,-1.38
2022-12-06T19:36:43.517Z,-1.47
2022-12-06T19:39:48.975Z,-1.42
2022-12-06T19:43:10.683Z,-1.50
2022-12-06T19:46:21.479Z,-1.49
2022-12-06T19:49:29.946Z,-1.56
2022-12-06T19:52:38.188Z,-1.57
2022-12-06T19:55:48.957Z,-1.57
2022-12-06T19:58:54.812Z,-1.59
2022-12-06T20:02:03.410Z,-1.55
2022-12-06T20:05:11.053Z,-1.61
2022-12-06T20:08:20.123Z,-1.59
2022-12-06T20:11:43.703Z,-1.55
2022-12-06T20:14:52.431Z,-1.63
2022-12-06T20:17:57.775Z,-1.67
2022-12-06T20:21:03.939Z,-1.66
2022-12-06T20:24:13.455Z,-1.64
2022-12-06T20:27:39.985Z,-1.62
2022-12-06T20:30:45.720Z,-1.62
2022-12-06T20:33:52.898Z,-1.63
2022-12-06T20:36:58.429Z,-1.63
2022-12-06T20:40:09.707Z,-1.64
2022-12-06T20:43:15.048Z,-1.66
2022-12-06T20:46:27.153Z,-1.65
2022-12-06T20:49:32.858Z,-1.65
2022-12-06T20:52:39.136Z,-1.69
2022-12-06T20:55:47.347Z,-1.58
2022-12-06T20:58:57.478Z,-1.62
2022-12-06T21:02:03.857Z,-1.32
2022-12-06T21:05:11.279Z,-1.23
2022-12-06T21:08:16.949Z,-1.15
2022-12-06T21:11:28.475Z,-1.07
2022-12-06T21:14:34.051Z,-1.07
2022-12-06T21:17:40.319Z,-1.04
2022-12-06T21:20:46.165Z,-0.99
2022-12-06T21:23:53.084Z,-1.03
2022-12-06T21:27:01.190Z,-1.10
2022-12-06T21:30:10.050Z,-1.12
2022-12-06T21:33:15.375Z,-1.13
2022-12-06T21:36:21.556Z,-1.20
2022-12-06T21:39:27.195Z,-1.16
2022-12-06T21:42:36.304Z,-1.11
2022-12-06T21:45:44.243Z,-1.13
2022-12-06T21:48:54.237Z,-1.07
2022-12-06T21:52:05.859Z,-1.09
2022-12-06T21:55:15.202Z,-1.11
2022-12-06T21:58:23.484Z,-1.06
2022-12-06T22:01:31.228Z,-1.01
2022-12-06T22:04:36.982Z,-0.99
2022-12-06T22:07:43.616Z,-0.96
2022-12-06T22:10:52.706Z,-0.92
2022-12-06T22:14:04.998Z,-0.94
2022-12-06T22:17:10.387Z,-0.92
2022-12-06T22:20:16.599Z,-0.89
2022-12-06T22:23:21.941Z,-0.86
2022-12-06T22:26:30.599Z,-0.86
2022-12-06T22:29:39.485Z,-0.93
2022-12-06T22:32:45.725Z,-0.87
2022-12-06T22:35:51.059Z,-0.87
2022-12-06T22:39:00.841Z,-0.86
2022-12-06T22:42:08.256Z,-0.92
2022-12-06T22:45:17.705Z,-0.87
2022-12-06T22:48:23.243Z,-0.80
2022-12-06T22:51:32.081Z,-0.74
2022-12-06T22:54:37.652Z,-0.73
2022-12-06T22:57:43.856Z,-0.78
2022-12-06T23:00:52.049Z,-0.77
2022-12-06T23:03:59.065Z,-0.89
2022-12-06T23:07:09.061Z,-0.88
2022-12-06T23:10:15.450Z,-0.87
2022-12-06T23:13:20.857Z,-0.81
2022-12-06T23:16:32.984Z,-0.80
2022-12-06T23:19:38.431Z,-0.91
2022-12-06T23:22:44.714Z,-0.85
2022-12-06T23:25:50.267Z,-0.82
2022-12-06T23:28:57.611Z,-0.83
2022-12-06T23:32:07.305Z,-0.93
2022-12-06T23:35:15.468Z,-0.96
2022-12-06T23:38:20.823Z,-0.98
2022-12-06T23:41:30.635Z,-1.01
2022-12-06T23:44:37.289Z,-1.03
2022-12-06T23:47:46.483Z,-1.05
2022-12-06T23:50:52.222Z,-1.00
2022-12-06T23:54:03.440Z,-1.00
2022-12-06T23:57:09.072Z,-0.89
